Ingraham, New York
Current Conditions -  °F | °C
As of 6:53 AM on Sunday 21 Dec 2014 (Local Time) from KPBG Reporting Station
Haze Haze  
Wind Chill: 17°   Ceiling: 500
Heat Index: 17°   Visibility: 5mi
Dew Point: 16°   Wind: 0mph
Humidity: 96%   Direction: NA
Pressure: 30.36"   Gusts: NA
Location:  44.7972°N, 73.5243°W
Report Text: KPBG 211153Z AUTO 00000KT 5SM BR OVC005 M08/M09 A3036 RMK AO2 SLP285 T10831089 11083 21089 53004
Loading
Personal Weather Stations






























Interactive Weather Map New forecast layout! Learn more

10-Day Weather Forecast

Advertisements
Track Severe Weather on mobile